sensor_id;sensor_type;location;lat;lon;timestamp;P1;durP1;ratioP1;P2;durP2;ratioP2
40787;SDS011;26497;52.494;7.546;2022-07-15T00:00:00;12.07;;;3.13;;
40787;SDS011;26497;52.494;7.546;2022-07-15T00:02:27;10.48;;;2.67;;
40787;SDS011;26497;52.494;7.546;2022-07-15T00:04:54;12.38;;;3.38;;
40787;SDS011;26497;52.494;7.546;2022-07-15T00:07:21;13.75;;;2.80;;
40787;SDS011;26497;52.494;7.546;2022-07-15T00:09:50;18.33;;;3.33;;
40787;SDS011;26497;52.494;7.546;2022-07-15T00:12:34;11.25;;;2.38;;
40787;SDS011;26497;52.494;7.546;2022-07-15T00:15:02;13.05;;;2.25;;
40787;SDS011;26497;52.494;7.546;2022-07-15T00:17:30;12.27;;;3.30;;
40787;SDS011;26497;52.494;7.546;2022-07-15T00:19:57;14.73;;;3.83;;
40787;SDS011;26497;52.494;7.546;2022-07-15T00:22:24;7.38;;;2.20;;
40787;SDS011;26497;52.494;7.546;2022-07-15T00:24:52;11.93;;;2.78;;
40787;SDS011;26497;52.494;7.546;2022-07-15T00:27:19;7.18;;;2.20;;
40787;SDS011;26497;52.494;7.546;2022-07-15T00:29:46;7.35;;;2.72;;
40787;SDS011;26497;52.494;7.546;2022-07-15T00:32:13;8.98;;;2.30;;
40787;SDS011;26497;52.494;7.546;2022-07-15T00:34:40;8.82;;;1.95;;
40787;SDS011;26497;52.494;7.546;2022-07-15T00:37:07;9.07;;;2.92;;
40787;SDS011;26497;52.494;7.546;2022-07-15T00:39:34;12.30;;;3.45;;
40787;SDS011;26497;52.494;7.546;2022-07-15T00:42:03;10.65;;;4.00;;
40787;SDS011;26497;52.494;7.546;2022-07-15T00:44:30;8.63;;;3.65;;
40787;SDS011;26497;52.494;7.546;2022-07-15T00:46:57;9.25;;;3.17;;
40787;SDS011;26497;52.494;7.546;2022-07-15T00:49:25;25.10;;;4.15;;
40787;SDS011;26497;52.494;7.546;2022-07-15T00:51:54;11.35;;;3.08;;
40787;SDS011;26497;52.494;7.546;2022-07-15T00:54:22;14.80;;;3.25;;
40787;SDS011;26497;52.494;7.546;2022-07-15T00:56:52;13.52;;;2.80;;
40787;SDS011;26497;52.494;7.546;2022-07-15T00:59:22;9.15;;;3.38;;
40787;SDS011;26497;52.494;7.546;2022-07-15T01:01:54;9.90;;;3.03;;
40787;SDS011;26497;52.494;7.546;2022-07-15T01:04:22;17.63;;;2.90;;
40787;SDS011;26497;52.494;7.546;2022-07-15T01:06:50;17.38;;;3.20;;
40787;SDS011;26497;52.494;7.546;2022-07-15T01:09:17;10.25;;;3.55;;
40787;SDS011;26497;52.494;7.546;2022-07-15T01:11:46;11.57;;;3.67;;
40787;SDS011;26497;52.494;7.546;2022-07-15T01:14:13;16.25;;;3.67;;
40787;SDS011;26497;52.494;7.546;2022-07-15T01:16:42;13.35;;;3.40;;
40787;SDS011;26497;52.494;7.546;2022-07-15T01:19:09;9.45;;;3.20;;
40787;SDS011;26497;52.494;7.546;2022-07-15T01:21:37;8.40;;;2.85;;
40787;SDS011;26497;52.494;7.546;2022-07-15T01:24:04;15.43;;;4.38;;
40787;SDS011;26497;52.494;7.546;2022-07-15T01:26:32;15.40;;;3.38;;
40787;SDS011;26497;52.494;7.546;2022-07-15T01:28:59;7.40;;;2.70;;
40787;SDS011;26497;52.494;7.546;2022-07-15T01:31:26;9.50;;;3.67;;
40787;SDS011;26497;52.494;7.546;2022-07-15T01:33:53;9.43;;;3.45;;
40787;SDS011;26497;52.494;7.546;2022-07-15T01:36:20;11.50;;;3.75;;
40787;SDS011;26497;52.494;7.546;2022-07-15T01:38:48;15.55;;;3.25;;
40787;SDS011;26497;52.494;7.546;2022-07-15T01:41:16;15.48;;;3.50;;
40787;SDS011;26497;52.494;7.546;2022-07-15T01:43:43;10.95;;;4.45;;
40787;SDS011;26497;52.494;7.546;2022-07-15T01:46:10;23.25;;;4.00;;
40787;SDS011;26497;52.494;7.546;2022-07-15T01:48:37;11.27;;;4.38;;
40787;SDS011;26497;52.494;7.546;2022-07-15T01:51:22;22.92;;;4.40;;
40787;SDS011;26497;52.494;7.546;2022-07-15T01:53:51;15.80;;;4.00;;
40787;SDS011;26497;52.494;7.546;2022-07-15T01:56:18;20.23;;;4.68;;
40787;SDS011;26497;52.494;7.546;2022-07-15T01:58:45;16.15;;;4.32;;
40787;SDS011;26497;52.494;7.546;2022-07-15T02:01:12;15.93;;;4.65;;
40787;SDS011;26497;52.494;7.546;2022-07-15T02:03:39;13.68;;;5.10;;
40787;SDS011;26497;52.494;7.546;2022-07-15T02:06:06;17.92;;;5.32;;
40787;SDS011;26497;52.494;7.546;2022-07-15T02:08:33;10.90;;;5.18;;
40787;SDS011;26497;52.494;7.546;2022-07-15T02:11:01;15.95;;;5.25;;
40787;SDS011;26497;52.494;7.546;2022-07-15T02:13:28;17.50;;;5.78;;
40787;SDS011;26497;52.494;7.546;2022-07-15T02:15:55;13.43;;;5.13;;
40787;SDS011;26497;52.494;7.546;2022-07-15T02:18:22;13.38;;;4.60;;
40787;SDS011;26497;52.494;7.546;2022-07-15T02:20:49;22.38;;;4.70;;
40787;SDS011;26497;52.494;7.546;2022-07-15T02:23:16;19.15;;;5.53;;
40787;SDS011;26497;52.494;7.546;2022-07-15T02:25:43;18.17;;;5.18;;
40787;SDS011;26497;52.494;7.546;2022-07-15T02:28:12;18.90;;;6.20;;
40787;SDS011;26497;52.494;7.546;2022-07-15T02:30:39;16.75;;;6.30;;
40787;SDS011;26497;52.494;7.546;2022-07-15T02:33:08;20.98;;;4.43;;
40787;SDS011;26497;52.494;7.546;2022-07-15T02:35:36;12.10;;;3.75;;
40787;SDS011;26497;52.494;7.546;2022-07-15T02:38:04;13.30;;;5.38;;
40787;SDS011;26497;52.494;7.546;2022-07-15T02:40:31;16.90;;;4.93;;
40787;SDS011;26497;52.494;7.546;2022-07-15T02:43:00;10.43;;;4.80;;
40787;SDS011;26497;52.494;7.546;2022-07-15T02:45:32;12.63;;;4.28;;
40787;SDS011;26497;52.494;7.546;2022-07-15T02:48:01;23.67;;;3.90;;
40787;SDS011;26497;52.494;7.546;2022-07-15T02:50:29;14.57;;;4.10;;
40787;SDS011;26497;52.494;7.546;2022-07-15T02:52:56;16.10;;;4.68;;
40787;SDS011;26497;52.494;7.546;2022-07-15T02:55:23;5.35;;;3.33;;
40787;SDS011;26497;52.494;7.546;2022-07-15T02:57:50;8.02;;;4.15;;
40787;SDS011;26497;52.494;7.546;2022-07-15T03:00:17;8.52;;;3.30;;
40787;SDS011;26497;52.494;7.546;2022-07-15T03:02:47;17.98;;;4.78;;
40787;SDS011;26497;52.494;7.546;2022-07-15T03:05:15;17.23;;;3.97;;
40787;SDS011;26497;52.494;7.546;2022-07-15T03:07:43;11.32;;;4.00;;
40787;SDS011;26497;52.494;7.546;2022-07-15T03:10:11;8.88;;;3.05;;
40787;SDS011;26497;52.494;7.546;2022-07-15T03:12:39;19.42;;;3.25;;
40787;SDS011;26497;52.494;7.546;2022-07-15T03:15:07;13.48;;;3.50;;
40787;SDS011;26497;52.494;7.546;2022-07-15T03:17:35;10.27;;;4.07;;
40787;SDS011;26497;52.494;7.546;2022-07-15T03:20:03;9.98;;;3.25;;
40787;SDS011;26497;52.494;7.546;2022-07-15T03:22:32;9.73;;;4.03;;
40787;SDS011;26497;52.494;7.546;2022-07-15T03:24:59;9.30;;;4.55;;
40787;SDS011;26497;52.494;7.546;2022-07-15T03:27:26;16.20;;;4.90;;
40787;SDS011;26497;52.494;7.546;2022-07-15T03:29:53;12.98;;;2.75;;
40787;SDS011;26497;52.494;7.546;2022-07-15T03:32:20;12.10;;;3.75;;
40787;SDS011;26497;52.494;7.546;2022-07-15T03:34:47;14.25;;;3.92;;
40787;SDS011;26497;52.494;7.546;2022-07-15T03:37:17;11.52;;;3.75;;
40787;SDS011;26497;52.494;7.546;2022-07-15T03:39:44;14.10;;;4.40;;
40787;SDS011;26497;52.494;7.546;2022-07-15T03:42:11;15.07;;;3.45;;
40787;SDS011;26497;52.494;7.546;2022-07-15T03:44:38;15.27;;;3.97;;
40787;SDS011;26497;52.494;7.546;2022-07-15T03:47:05;15.77;;;2.90;;
40787;SDS011;26497;52.494;7.546;2022-07-15T03:49:32;11.45;;;3.25;;
40787;SDS011;26497;52.494;7.546;2022-07-15T03:51:59;6.15;;;3.35;;
40787;SDS011;26497;52.494;7.546;2022-07-15T03:54:27;11.48;;;3.20;;
40787;SDS011;26497;52.494;7.546;2022-07-15T03:56:54;8.68;;;3.60;;
40787;SDS011;26497;52.494;7.546;2022-07-15T03:59:21;11.48;;;2.88;;
40787;SDS011;26497;52.494;7.546;2022-07-15T04:01:48;18.70;;;4.20;;
40787;SDS011;26497;52.494;7.546;2022-07-15T04:04:16;12.30;;;2.97;;
40787;SDS011;26497;52.494;7.546;2022-07-15T04:06:43;8.07;;;2.65;;
40787;SDS011;26497;52.494;7.546;2022-07-15T04:09:10;7.93;;;2.90;;
40787;SDS011;26497;52.494;7.546;2022-07-15T04:11:38;8.88;;;3.13;;
40787;SDS011;26497;52.494;7.546;2022-07-15T04:14:07;6.72;;;2.90;;
40787;SDS011;26497;52.494;7.546;2022-07-15T04:16:36;8.25;;;2.72;;
40787;SDS011;26497;52.494;7.546;2022-07-15T04:19:03;11.10;;;3.92;;
40787;SDS011;26497;52.494;7.546;2022-07-15T04:21:30;13.02;;;3.50;;
40787;SDS011;26497;52.494;7.546;2022-07-15T04:23:58;8.07;;;3.25;;
40787;SDS011;26497;52.494;7.546;2022-07-15T04:26:26;8.18;;;3.35;;
40787;SDS011;26497;52.494;7.546;2022-07-15T04:28:55;14.55;;;4.15;;
40787;SDS011;26497;52.494;7.546;2022-07-15T04:31:22;9.77;;;3.75;;
40787;SDS011;26497;52.494;7.546;2022-07-15T04:33:49;8.38;;;2.83;;
40787;SDS011;26497;52.494;7.546;2022-07-15T04:36:16;10.88;;;2.58;;
40787;SDS011;26497;52.494;7.546;2022-07-15T04:38:43;6.97;;;1.83;;
40787;SDS011;26497;52.494;7.546;2022-07-15T04:41:10;8.38;;;1.92;;
40787;SDS011;26497;52.494;7.546;2022-07-15T04:43:37;6.95;;;2.65;;
40787;SDS011;26497;52.494;7.546;2022-07-15T04:46:06;3.60;;;1.13;;
40787;SDS011;26497;52.494;7.546;2022-07-15T04:48:33;13.27;;;2.25;;
40787;SDS011;26497;52.494;7.546;2022-07-15T04:51:17;7.82;;;1.92;;
40787;SDS011;26497;52.494;7.546;2022-07-15T04:53:44;10.20;;;2.33;;
40787;SDS011;26497;52.494;7.546;2022-07-15T04:56:12;8.32;;;2.60;;
40787;SDS011;26497;52.494;7.546;2022-07-15T04:58:40;7.47;;;2.30;;
40787;SDS011;26497;52.494;7.546;2022-07-15T05:01:09;9.98;;;2.17;;
40787;SDS011;26497;52.494;7.546;2022-07-15T05:03:37;9.23;;;1.92;;
40787;SDS011;26497;52.494;7.546;2022-07-15T05:06:04;10.32;;;1.45;;
40787;SDS011;26497;52.494;7.546;2022-07-15T05:08:31;13.25;;;2.50;;
40787;SDS011;26497;52.494;7.546;2022-07-15T05:10:59;9.30;;;1.55;;
40787;SDS011;26497;52.494;7.546;2022-07-15T05:13:26;4.47;;;1.55;;
40787;SDS011;26497;52.494;7.546;2022-07-15T05:15:53;6.15;;;1.55;;
40787;SDS011;26497;52.494;7.546;2022-07-15T05:18:21;4.50;;;1.08;;
40787;SDS011;26497;52.494;7.546;2022-07-15T05:20:48;4.00;;;1.10;;
40787;SDS011;26497;52.494;7.546;2022-07-15T05:23:15;6.35;;;1.27;;
40787;SDS011;26497;52.494;7.546;2022-07-15T05:25:43;5.15;;;1.48;;
40787;SDS011;26497;52.494;7.546;2022-07-15T05:28:10;6.63;;;1.00;;
40787;SDS011;26497;52.494;7.546;2022-07-15T05:30:37;7.80;;;1.83;;
40787;SDS011;26497;52.494;7.546;2022-07-15T05:33:04;8.00;;;1.73;;
40787;SDS011;26497;52.494;7.546;2022-07-15T05:35:33;10.77;;;1.88;;
40787;SDS011;26497;52.494;7.546;2022-07-15T05:38:00;11.02;;;1.48;;
40787;SDS011;26497;52.494;7.546;2022-07-15T05:40:27;3.30;;;1.38;;
40787;SDS011;26497;52.494;7.546;2022-07-15T05:42:54;7.47;;;2.08;;
40787;SDS011;26497;52.494;7.546;2022-07-15T05:45:22;10.27;;;2.47;;
40787;SDS011;26497;52.494;7.546;2022-07-15T05:47:50;2.33;;;0.50;;
40787;SDS011;26497;52.494;7.546;2022-07-15T05:50:18;8.55;;;0.82;;
40787;SDS011;26497;52.494;7.546;2022-07-15T05:52:46;6.38;;;1.38;;
40787;SDS011;26497;52.494;7.546;2022-07-15T05:55:13;4.85;;;0.70;;
40787;SDS011;26497;52.494;7.546;2022-07-15T05:57:40;4.60;;;0.85;;
40787;SDS011;26497;52.494;7.546;2022-07-15T06:00:08;5.05;;;0.50;;
40787;SDS011;26497;52.494;7.546;2022-07-15T06:02:36;3.75;;;0.50;;
40787;SDS011;26497;52.494;7.546;2022-07-15T06:05:03;5.20;;;0.73;;
40787;SDS011;26497;52.494;7.546;2022-07-15T06:07:32;2.20;;;0.50;;
40787;SDS011;26497;52.494;7.546;2022-07-15T06:10:00;3.80;;;0.75;;
40787;SDS011;26497;52.494;7.546;2022-07-15T06:12:27;5.35;;;2.20;;
40787;SDS011;26497;52.494;7.546;2022-07-15T06:14:54;3.03;;;0.45;;
40787;SDS011;26497;52.494;7.546;2022-07-15T06:17:21;9.25;;;0.50;;
40787;SDS011;26497;52.494;7.546;2022-07-15T06:19:48;2.90;;;0.47;;
40787;SDS011;26497;52.494;7.546;2022-07-15T06:22:15;4.43;;;0.45;;
40787;SDS011;26497;52.494;7.546;2022-07-15T06:24:42;1.38;;;0.38;;
40787;SDS011;26497;52.494;7.546;2022-07-15T06:27:11;5.95;;;1.10;;
40787;SDS011;26497;52.494;7.546;2022-07-15T06:29:37;2.03;;;0.20;;
40787;SDS011;26497;52.494;7.546;2022-07-15T06:32:05;3.13;;;0.68;;
40787;SDS011;26497;52.494;7.546;2022-07-15T06:34:33;3.53;;;0.40;;
40787;SDS011;26497;52.494;7.546;2022-07-15T06:37:00;3.78;;;0.63;;
40787;SDS011;26497;52.494;7.546;2022-07-15T06:39:27;3.13;;;0.40;;
40787;SDS011;26497;52.494;7.546;2022-07-15T06:41:54;5.68;;;0.63;;
40787;SDS011;26497;52.494;7.546;2022-07-15T06:44:22;7.32;;;0.43;;
40787;SDS011;26497;52.494;7.546;2022-07-15T06:46:49;1.73;;;0.20;;
40787;SDS011;26497;52.494;7.546;2022-07-15T06:49:16;3.92;;;0.73;;
40787;SDS011;26497;52.494;7.546;2022-07-15T06:51:43;5.18;;;0.40;;
40787;SDS011;26497;52.494;7.546;2022-07-15T06:54:10;12.75;;;0.77;;
40787;SDS011;26497;52.494;7.546;2022-07-15T06:56:37;3.38;;;0.50;;
40787;SDS011;26497;52.494;7.546;2022-07-15T06:59:05;6.07;;;0.75;;
40787;SDS011;26497;52.494;7.546;2022-07-15T07:01:33;1.30;;;0.20;;
40787;SDS011;26497;52.494;7.546;2022-07-15T07:04:01;2.40;;;0.35;;
40787;SDS011;26497;52.494;7.546;2022-07-15T07:06:28;3.25;;;0.40;;
40787;SDS011;26497;52.494;7.546;2022-07-15T07:08:55;2.75;;;0.20;;
40787;SDS011;26497;52.494;7.546;2022-07-15T07:11:22;0.85;;;0.40;;
40787;SDS011;26497;52.494;7.546;2022-07-15T07:13:49;2.15;;;0.25;;
40787;SDS011;26497;52.494;7.546;2022-07-15T07:16:17;0.93;;;0.63;;
40787;SDS011;26497;52.494;7.546;2022-07-15T07:18:45;3.25;;;0.22;;
40787;SDS011;26497;52.494;7.546;2022-07-15T07:21:15;4.78;;;0.20;;
40787;SDS011;26497;52.494;7.546;2022-07-15T07:23:42;1.55;;;0.20;;
40787;SDS011;26497;52.494;7.546;2022-07-15T07:26:10;2.55;;;0.50;;
40787;SDS011;26497;52.494;7.546;2022-07-15T07:28:38;2.50;;;1.05;;
40787;SDS011;26497;52.494;7.546;2022-07-15T07:31:05;3.00;;;0.30;;
40787;SDS011;26497;52.494;7.546;2022-07-15T07:33:33;1.27;;;0.30;;
40787;SDS011;26497;52.494;7.546;2022-07-15T07:36:02;2.28;;;0.38;;
40787;SDS011;26497;52.494;7.546;2022-07-15T07:38:31;1.58;;;0.20;;
40787;SDS011;26497;52.494;7.546;2022-07-15T07:40:58;2.03;;;0.17;;
40787;SDS011;26497;52.494;7.546;2022-07-15T07:43:26;2.60;;;0.30;;
40787;SDS011;26497;52.494;7.546;2022-07-15T07:45:53;0.60;;;0.40;;
40787;SDS011;26497;52.494;7.546;2022-07-15T07:48:20;2.35;;;0.30;;
40787;SDS011;26497;52.494;7.546;2022-07-15T07:50:47;6.40;;;0.73;;
40787;SDS011;26497;52.494;7.546;2022-07-15T07:53:16;3.75;;;0.30;;
40787;SDS011;26497;52.494;7.546;2022-07-15T07:55:43;2.70;;;0.20;;
40787;SDS011;26497;52.494;7.546;2022-07-15T07:58:10;3.45;;;0.30;;
40787;SDS011;26497;52.494;7.546;2022-07-15T08:00:37;3.53;;;0.30;;
40787;SDS011;26497;52.494;7.546;2022-07-15T08:03:04;3.53;;;0.30;;
40787;SDS011;26497;52.494;7.546;2022-07-15T08:05:31;3.97;;;0.20;;
40787;SDS011;26497;52.494;7.546;2022-07-15T08:08:07;2.70;;;0.52;;
40787;SDS011;26497;52.494;7.546;2022-07-15T08:10:38;3.72;;;0.30;;
40787;SDS011;26497;52.494;7.546;2022-07-15T08:13:06;2.55;;;0.70;;
40787;SDS011;26497;52.494;7.546;2022-07-15T08:15:33;0.22;;;0.10;;
40787;SDS011;26497;52.494;7.546;2022-07-15T08:18:01;3.88;;;0.20;;
40787;SDS011;26497;52.494;7.546;2022-07-15T08:20:28;4.22;;;0.40;;
40787;SDS011;26497;52.494;7.546;2022-07-15T08:22:57;2.60;;;0.30;;
40787;SDS011;26497;52.494;7.546;2022-07-15T08:25:28;1.98;;;0.47;;
40787;SDS011;26497;52.494;7.546;2022-07-15T08:28:13;2.60;;;0.43;;
40787;SDS011;26497;52.494;7.546;2022-07-15T08:30:40;2.05;;;0.40;;
40787;SDS011;26497;52.494;7.546;2022-07-15T08:33:07;1.33;;;0.15;;
40787;SDS011;26497;52.494;7.546;2022-07-15T08:35:34;0.60;;;0.10;;
40787;SDS011;26497;52.494;7.546;2022-07-15T08:38:02;1.10;;;0.20;;
40787;SDS011;26497;52.494;7.546;2022-07-15T08:40:32;4.22;;;0.55;;
40787;SDS011;26497;52.494;7.546;2022-07-15T08:42:59;3.05;;;0.20;;
40787;SDS011;26497;52.494;7.546;2022-07-15T08:45:28;1.05;;;0.20;;
40787;SDS011;26497;52.494;7.546;2022-07-15T08:47:55;0.20;;;0.08;;
40787;SDS011;26497;52.494;7.546;2022-07-15T08:52:53;3.83;;;0.20;;
40787;SDS011;26497;52.494;7.546;2022-07-15T08:55:21;2.42;;;0.32;;
40787;SDS011;26497;52.494;7.546;2022-07-15T08:57:49;1.80;;;0.20;;
40787;SDS011;26497;52.494;7.546;2022-07-15T09:00:18;1.27;;;0.10;;
40787;SDS011;26497;52.494;7.546;2022-07-15T09:02:48;3.00;;;0.32;;
40787;SDS011;26497;52.494;7.546;2022-07-15T09:05:18;0.80;;;0.20;;
40787;SDS011;26497;52.494;7.546;2022-07-15T09:07:52;1.13;;;0.10;;
40787;SDS011;26497;52.494;7.546;2022-07-15T09:10:40;4.70;;;0.68;;
40787;SDS011;26497;52.494;7.546;2022-07-15T09:13:11;4.28;;;0.60;;
40787;SDS011;26497;52.494;7.546;2022-07-15T09:15:51;1.52;;;0.10;;
40787;SDS011;26497;52.494;7.546;2022-07-15T09:18:22;3.17;;;0.10;;
40787;SDS011;26497;52.494;7.546;2022-07-15T09:20:51;3.28;;;0.45;;
40787;SDS011;26497;52.494;7.546;2022-07-15T09:23:20;1.92;;;0.20;;
40787;SDS011;26497;52.494;7.546;2022-07-15T09:25:55;0.57;;;0.00;;
40787;SDS011;26497;52.494;7.546;2022-07-15T09:28:35;1.33;;;0.10;;
40787;SDS011;26497;52.494;7.546;2022-07-15T09:31:04;17.20;;;0.70;;
40787;SDS011;26497;52.494;7.546;2022-07-15T09:33:57;1.83;;;0.30;;
40787;SDS011;26497;52.494;7.546;2022-07-15T09:36:27;3.90;;;0.30;;
40787;SDS011;26497;52.494;7.546;2022-07-15T09:38:57;0.25;;;0.20;;
40787;SDS011;26497;52.494;7.546;2022-07-15T09:41:28;1.05;;;0.08;;
40787;SDS011;26497;52.494;7.546;2022-07-15T09:44:00;2.85;;;0.40;;
40787;SDS011;26497;52.494;7.546;2022-07-15T09:46:38;0.60;;;0.10;;
40787;SDS011;26497;52.494;7.546;2022-07-15T09:49:10;1.05;;;0.20;;
40787;SDS011;26497;52.494;7.546;2022-07-15T09:51:42;2.13;;;0.00;;
40787;SDS011;26497;52.494;7.546;2022-07-15T09:54:12;0.35;;;0.10;;
40787;SDS011;26497;52.494;7.546;2022-07-15T09:56:40;1.83;;;0.30;;
40787;SDS011;26497;52.494;7.546;2022-07-15T09:59:07;0.80;;;0.10;;
40787;SDS011;26497;52.494;7.546;2022-07-15T10:01:35;1.50;;;0.10;;
40787;SDS011;26497;52.494;7.546;2022-07-15T10:04:02;0.98;;;0.32;;
40787;SDS011;26497;52.494;7.546;2022-07-15T10:06:32;5.45;;;0.40;;
40787;SDS011;26497;52.494;7.546;2022-07-15T10:09:03;1.45;;;0.30;;
40787;SDS011;26497;52.494;7.546;2022-07-15T10:11:32;0.20;;;0.10;;
40787;SDS011;26497;52.494;7.546;2022-07-15T10:17:16;3.10;;;0.40;;
40787;SDS011;26497;52.494;7.546;2022-07-15T10:20:01;0.88;;;0.10;;
40787;SDS011;26497;52.494;7.546;2022-07-15T10:22:49;1.77;;;0.45;;
40787;SDS011;26497;52.494;7.546;2022-07-15T10:25:25;0.35;;;0.10;;
40787;SDS011;26497;52.494;7.546;2022-07-15T10:28:22;2.03;;;0.20;;
40787;SDS011;26497;52.494;7.546;2022-07-15T10:31:14;0.35;;;0.00;;
40787;SDS011;26497;52.494;7.546;2022-07-15T10:36:53;2.13;;;0.47;;
40787;SDS011;26497;52.494;7.546;2022-07-15T10:39:24;0.55;;;0.05;;
40787;SDS011;26497;52.494;7.546;2022-07-15T10:41:54;0.98;;;0.20;;
40787;SDS011;26497;52.494;7.546;2022-07-15T10:44:23;2.80;;;0.10;;
40787;SDS011;26497;52.494;7.546;2022-07-15T10:49:45;0.63;;;0.10;;
40787;SDS011;26497;52.494;7.546;2022-07-15T10:52:15;0.93;;;0.05;;
40787;SDS011;26497;52.494;7.546;2022-07-15T10:54:45;1.27;;;0.10;;
40787;SDS011;26497;52.494;7.546;2022-07-15T10:59:48;1.55;;;0.38;;
40787;SDS011;26497;52.494;7.546;2022-07-15T11:02:19;2.63;;;0.20;;
40787;SDS011;26497;52.494;7.546;2022-07-15T11:04:48;1.57;;;0.30;;
40787;SDS011;26497;52.494;7.546;2022-07-15T11:07:23;4.80;;;0.20;;
40787;SDS011;26497;52.494;7.546;2022-07-15T11:09:54;5.65;;;0.30;;
40787;SDS011;26497;52.494;7.546;2022-07-15T11:12:23;0.63;;;0.10;;
40787;SDS011;26497;52.494;7.546;2022-07-15T11:15:16;0.35;;;0.10;;
40787;SDS011;26497;52.494;7.546;2022-07-15T11:17:45;1.13;;;0.15;;
40787;SDS011;26497;52.494;7.546;2022-07-15T11:20:16;1.20;;;0.43;;
40787;SDS011;26497;52.494;7.546;2022-07-15T11:22:46;0.15;;;0.10;;
40787;SDS011;26497;52.494;7.546;2022-07-15T11:25:17;2.20;;;0.27;;
40787;SDS011;26497;52.494;7.546;2022-07-15T11:27:55;1.38;;;0.43;;
40787;SDS011;26497;52.494;7.546;2022-07-15T11:30:25;2.58;;;0.10;;
40787;SDS011;26497;52.494;7.546;2022-07-15T11:32:55;1.30;;;0.10;;
40787;SDS011;26497;52.494;7.546;2022-07-15T11:35:24;0.30;;;0.10;;
40787;SDS011;26497;52.494;7.546;2022-07-15T11:37:56;3.22;;;0.10;;
40787;SDS011;26497;52.494;7.546;2022-07-15T11:40:28;2.83;;;0.10;;
40787;SDS011;26497;52.494;7.546;2022-07-15T11:43:14;4.15;;;0.17;;
40787;SDS011;26497;52.494;7.546;2022-07-15T11:46:01;0.98;;;0.20;;
40787;SDS011;26497;52.494;7.546;2022-07-15T11:48:34;0.60;;;0.10;;
40787;SDS011;26497;52.494;7.546;2022-07-15T11:51:03;0.32;;;0.00;;
40787;SDS011;26497;52.494;7.546;2022-07-15T11:53:36;0.70;;;0.10;;
40787;SDS011;26497;52.494;7.546;2022-07-15T11:56:07;0.22;;;0.08;;
40787;SDS011;26497;52.494;7.546;2022-07-15T12:01:06;0.43;;;0.00;;
40787;SDS011;26497;52.494;7.546;2022-07-15T12:03:36;0.33;;;0.30;;
40787;SDS011;26497;52.494;7.546;2022-07-15T12:06:07;1.88;;;0.17;;
40787;SDS011;26497;52.494;7.546;2022-07-15T12:08:41;0.13;;;0.00;;
40787;SDS011;26497;52.494;7.546;2022-07-15T12:11:17;1.23;;;0.10;;
40787;SDS011;26497;52.494;7.546;2022-07-15T12:13:49;0.90;;;0.00;;
40787;SDS011;26497;52.494;7.546;2022-07-15T12:16:22;2.00;;;0.10;;
40787;SDS011;26497;52.494;7.546;2022-07-15T12:18:54;1.85;;;0.00;;
40787;SDS011;26497;52.494;7.546;2022-07-15T12:21:24;2.75;;;0.10;;
40787;SDS011;26497;52.494;7.546;2022-07-15T12:24:03;0.68;;;0.00;;
40787;SDS011;26497;52.494;7.546;2022-07-15T12:26:35;1.02;;;0.20;;
40787;SDS011;26497;52.494;7.546;2022-07-15T12:29:06;0.32;;;0.10;;
40787;SDS011;26497;52.494;7.546;2022-07-15T12:31:36;3.33;;;0.30;;
40787;SDS011;26497;52.494;7.546;2022-07-15T12:34:06;0.40;;;0.10;;
40787;SDS011;26497;52.494;7.546;2022-07-15T12:36:33;0.85;;;0.10;;
40787;SDS011;26497;52.494;7.546;2022-07-15T12:39:04;0.52;;;0.05;;
40787;SDS011;26497;52.494;7.546;2022-07-15T12:41:38;0.50;;;0.10;;
40787;SDS011;26497;52.494;7.546;2022-07-15T12:44:07;4.57;;;0.10;;
40787;SDS011;26497;52.494;7.546;2022-07-15T12:46:51;0.80;;;0.10;;
40787;SDS011;26497;52.494;7.546;2022-07-15T12:49:38;1.23;;;0.10;;
40787;SDS011;26497;52.494;7.546;2022-07-15T12:52:15;0.47;;;0.10;;
40787;SDS011;26497;52.494;7.546;2022-07-15T12:54:50;1.30;;;0.05;;
40787;SDS011;26497;52.494;7.546;2022-07-15T12:57:26;1.38;;;0.25;;
40787;SDS011;26497;52.494;7.546;2022-07-15T12:59:57;0.82;;;0.10;;
40787;SDS011;26497;52.494;7.546;2022-07-15T13:02:26;0.10;;;0.00;;
40787;SDS011;26497;52.494;7.546;2022-07-15T13:04:54;0.52;;;0.10;;
40787;SDS011;26497;52.494;7.546;2022-07-15T13:07:21;0.15;;;0.00;;
40787;SDS011;26497;52.494;7.546;2022-07-15T13:09:48;1.00;;;0.35;;
40787;SDS011;26497;52.494;7.546;2022-07-15T13:12:16;2.30;;;0.10;;
40787;SDS011;26497;52.494;7.546;2022-07-15T13:14:44;2.38;;;0.25;;
40787;SDS011;26497;52.494;7.546;2022-07-15T13:17:11;0.88;;;0.10;;
40787;SDS011;26497;52.494;7.546;2022-07-15T13:19:38;2.70;;;0.00;;
40787;SDS011;26497;52.494;7.546;2022-07-15T13:22:05;0.65;;;0.10;;
40787;SDS011;26497;52.494;7.546;2022-07-15T13:24:32;2.80;;;0.17;;
40787;SDS011;26497;52.494;7.546;2022-07-15T13:26:59;0.32;;;0.10;;
40787;SDS011;26497;52.494;7.546;2022-07-15T13:29:26;1.40;;;0.43;;
40787;SDS011;26497;52.494;7.546;2022-07-15T13:31:55;0.10;;;0.05;;
40787;SDS011;26497;52.494;7.546;2022-07-15T13:34:22;0.82;;;0.25;;
40787;SDS011;26497;52.494;7.546;2022-07-15T13:36:48;1.10;;;0.10;;
40787;SDS011;26497;52.494;7.546;2022-07-15T13:39:15;0.80;;;0.10;;
40787;SDS011;26497;52.494;7.546;2022-07-15T13:41:42;2.80;;;0.32;;
40787;SDS011;26497;52.494;7.546;2022-07-15T13:44:09;0.38;;;0.10;;
40787;SDS011;26497;52.494;7.546;2022-07-15T13:46:36;0.75;;;0.15;;
40787;SDS011;26497;52.494;7.546;2022-07-15T13:49:05;2.05;;;0.25;;
40787;SDS011;26497;52.494;7.546;2022-07-15T13:51:32;1.13;;;0.20;;
40787;SDS011;26497;52.494;7.546;2022-07-15T13:53:58;0.73;;;0.00;;
40787;SDS011;26497;52.494;7.546;2022-07-15T13:56:25;0.73;;;0.20;;
40787;SDS011;26497;52.494;7.546;2022-07-15T13:58:52;0.38;;;0.10;;
40787;SDS011;26497;52.494;7.546;2022-07-15T14:01:23;0.52;;;0.28;;
40787;SDS011;26497;52.494;7.546;2022-07-15T14:03:52;0.80;;;0.20;;
40787;SDS011;26497;52.494;7.546;2022-07-15T14:06:20;0.63;;;0.10;;
40787;SDS011;26497;52.494;7.546;2022-07-15T14:08:47;0.98;;;0.20;;
40787;SDS011;26497;52.494;7.546;2022-07-15T14:11:15;0.95;;;0.13;;
40787;SDS011;26497;52.494;7.546;2022-07-15T14:13:43;0.60;;;0.10;;
40787;SDS011;26497;52.494;7.546;2022-07-15T14:16:10;0.90;;;0.10;;
40787;SDS011;26497;52.494;7.546;2022-07-15T14:18:37;9.88;;;0.32;;
40787;SDS011;26497;52.494;7.546;2022-07-15T14:27:20;2.42;;;0.20;;
40787;SDS011;26497;52.494;7.546;2022-07-15T14:29:47;0.17;;;0.10;;
40787;SDS011;26497;52.494;7.546;2022-07-15T14:32:14;0.38;;;0.20;;
40787;SDS011;26497;52.494;7.546;2022-07-15T14:34:41;1.50;;;0.13;;
40787;SDS011;26497;52.494;7.546;2022-07-15T14:37:08;0.43;;;0.10;;
40787;SDS011;26497;52.494;7.546;2022-07-15T14:39:35;1.83;;;0.17;;
40787;SDS011;26497;52.494;7.546;2022-07-15T14:42:03;0.68;;;0.30;;
40787;SDS011;26497;52.494;7.546;2022-07-15T14:44:30;5.30;;;0.30;;
40787;SDS011;26497;52.494;7.546;2022-07-15T14:46:57;0.25;;;0.10;;
40787;SDS011;26497;52.494;7.546;2022-07-15T14:49:24;0.80;;;0.00;;
40787;SDS011;26497;52.494;7.546;2022-07-15T14:51:51;0.65;;;0.10;;
40787;SDS011;26497;52.494;7.546;2022-07-15T14:54:18;0.85;;;0.10;;
40787;SDS011;26497;52.494;7.546;2022-07-15T14:56:48;0.85;;;0.30;;
40787;SDS011;26497;52.494;7.546;2022-07-15T14:59:16;3.00;;;0.15;;
40787;SDS011;26497;52.494;7.546;2022-07-15T15:01:43;1.45;;;0.25;;
40787;SDS011;26497;52.494;7.546;2022-07-15T15:04:10;1.58;;;0.15;;
40787;SDS011;26497;52.494;7.546;2022-07-15T15:06:37;1.35;;;0.15;;
40787;SDS011;26497;52.494;7.546;2022-07-15T15:09:04;0.45;;;0.20;;
40787;SDS011;26497;52.494;7.546;2022-07-15T15:11:31;0.20;;;0.03;;
40787;SDS011;26497;52.494;7.546;2022-07-15T15:13:58;0.30;;;0.10;;
40787;SDS011;26497;52.494;7.546;2022-07-15T15:16:27;0.30;;;0.10;;
40787;SDS011;26497;52.494;7.546;2022-07-15T15:18:54;1.80;;;0.00;;